createdAt,value
2018-05-21T00:00:16.599Z,3.50
2018-05-21T00:02:44.725Z,2.97
2018-05-21T00:05:12.846Z,3.17
2018-05-21T00:07:40.993Z,3.50
2018-05-21T00:10:09.107Z,2.73
2018-05-21T00:12:37.206Z,3.40
2018-05-21T00:15:05.369Z,3.03
2018-05-21T00:17:33.485Z,3.53
2018-05-21T00:20:01.598Z,3.30
2018-05-21T00:22:29.715Z,3.13
2018-05-21T00:24:57.857Z,3.20
2018-05-21T00:27:25.975Z,3.50
2018-05-21T00:29:54.101Z,3.50
2018-05-21T00:32:22.222Z,3.37
2018-05-21T00:34:50.333Z,3.00
2018-05-21T00:37:18.479Z,3.30
2018-05-21T00:39:46.660Z,3.20
2018-05-21T00:42:14.787Z,3.20
2018-05-21T00:44:42.940Z,3.03
2018-05-21T00:47:11.076Z,3.70
2018-05-21T00:49:39.193Z,3.83
2018-05-21T00:52:07.329Z,3.97
2018-05-21T00:54:35.441Z,4.87
2018-05-21T00:57:03.573Z,5.40
2018-05-21T00:59:31.687Z,5.33
2018-05-21T01:01:59.823Z,5.70
2018-05-21T01:04:27.948Z,5.10
2018-05-21T01:06:56.091Z,4.73
2018-05-21T01:09:24.188Z,4.77
2018-05-21T01:11:53.133Z,4.93
2018-05-21T01:14:21.274Z,4.80
2018-05-21T01:16:49.385Z,4.50
2018-05-21T01:19:17.501Z,4.33
2018-05-21T01:21:45.779Z,4.37
2018-05-21T01:24:13.883Z,4.10
2018-05-21T01:26:42.016Z,3.93
2018-05-21T01:29:10.293Z,3.73
2018-05-21T01:31:38.422Z,3.77
2018-05-21T01:34:06.544Z,3.40
2018-05-21T01:36:34.685Z,3.90
2018-05-21T01:39:02.802Z,3.70
2018-05-21T01:41:30.924Z,3.50
2018-05-21T01:43:59.076Z,3.63
2018-05-21T01:46:27.166Z,3.40
2018-05-21T01:48:55.270Z,3.37
2018-05-21T01:51:23.410Z,3.50
2018-05-21T01:53:51.527Z,3.50
2018-05-21T01:56:19.637Z,3.37
2018-05-21T01:58:47.971Z,3.40
2018-05-21T02:01:16.071Z,3.43
2018-05-21T02:03:44.170Z,3.33
2018-05-21T02:06:12.301Z,3.57
2018-05-21T02:08:40.523Z,3.50
2018-05-21T02:11:08.550Z,3.50
2018-05-21T02:13:36.681Z,3.33
2018-05-21T02:16:04.818Z,3.50
2018-05-21T02:18:32.960Z,3.33
2018-05-21T02:21:01.427Z,3.47
2018-05-21T02:23:29.514Z,3.47
2018-05-21T02:25:57.637Z,3.50
2018-05-21T02:28:25.765Z,3.33
2018-05-21T02:30:53.902Z,3.27
2018-05-21T02:33:22.028Z,3.37
2018-05-21T02:35:50.165Z,3.23
2018-05-21T02:38:18.260Z,3.00
2018-05-21T02:40:46.369Z,3.00
2018-05-21T02:43:14.491Z,3.37
2018-05-21T02:45:42.601Z,3.50
2018-05-21T02:48:10.716Z,3.40
2018-05-21T02:50:39.668Z,3.30
2018-05-21T02:53:07.805Z,3.30
2018-05-21T02:55:35.949Z,3.17
2018-05-21T02:58:04.063Z,3.70
2018-05-21T03:00:32.189Z,3.20
2018-05-21T03:03:00.303Z,3.47
2018-05-21T03:05:28.427Z,3.80
2018-05-21T03:07:56.531Z,3.53
2018-05-21T03:10:24.636Z,3.13
2018-05-21T03:12:52.787Z,3.20
2018-05-21T03:15:20.929Z,3.47
2018-05-21T03:17:49.060Z,3.00
2018-05-21T03:20:17.197Z,3.53
2018-05-21T03:22:45.310Z,3.53
2018-05-21T03:25:13.456Z,3.57
2018-05-21T03:27:41.576Z,3.47
2018-05-21T03:30:09.716Z,3.27
2018-05-21T03:32:37.825Z,3.70
2018-05-21T03:35:05.938Z,3.60
2018-05-21T03:37:34.056Z,3.50
2018-05-21T03:40:02.417Z,3.40
2018-05-21T03:42:30.534Z,3.67
2018-05-21T03:44:58.673Z,3.50
2018-05-21T03:47:26.775Z,3.37
2018-05-21T03:49:54.899Z,3.23
2018-05-21T03:52:23.017Z,3.50
2018-05-21T03:54:51.130Z,3.60
2018-05-21T03:57:19.494Z,3.27
2018-05-21T03:59:59.595Z,3.50
2018-05-21T04:02:39.688Z,3.40
2018-05-21T04:05:07.801Z,3.63
2018-05-21T04:07:35.932Z,3.50
2018-05-21T04:10:04.977Z,3.30
2018-05-21T04:12:33.150Z,3.40
2018-05-21T04:15:01.288Z,3.43
2018-05-21T04:17:29.480Z,3.60
2018-05-21T04:19:57.583Z,3.40
2018-05-21T04:22:25.705Z,3.43
2018-05-21T04:24:53.851Z,3.67
2018-05-21T04:27:21.952Z,3.47
2018-05-21T04:29:50.091Z,3.37
2018-05-21T04:32:18.239Z,3.40
2018-05-21T04:34:46.349Z,3.47
2018-05-21T04:37:14.464Z,3.10
2018-05-21T04:39:42.717Z,3.50
2018-05-21T04:42:10.836Z,3.40
2018-05-21T04:44:38.962Z,3.50
2018-05-21T04:47:07.102Z,3.30
2018-05-21T04:49:35.208Z,3.47
2018-05-21T04:52:03.328Z,3.30
2018-05-21T04:54:31.461Z,3.10
2018-05-21T04:56:59.592Z,3.23
2018-05-21T04:59:27.691Z,3.60
2018-05-21T05:01:55.817Z,3.00
2018-05-21T05:04:23.938Z,2.93
2018-05-21T05:06:52.053Z,3.30
2018-05-21T05:09:20.202Z,2.93
2018-05-21T05:11:48.332Z,3.30
2018-05-21T05:14:16.452Z,3.47
2018-05-21T05:16:44.582Z,3.00
2018-05-21T05:19:12.696Z,3.27
2018-05-21T05:21:40.806Z,3.20
2018-05-21T05:24:08.934Z,3.47
2018-05-21T05:26:37.092Z,3.23
2018-05-21T05:29:05.201Z,3.47
2018-05-21T05:31:33.339Z,3.23
2018-05-21T05:34:01.461Z,3.57
2018-05-21T05:36:29.568Z,3.70
2018-05-21T05:38:57.681Z,3.40
2018-05-21T05:41:25.805Z,3.47
2018-05-21T05:43:53.915Z,3.57
2018-05-21T05:46:22.047Z,3.10
2018-05-21T05:48:50.206Z,3.27
2018-05-21T05:51:18.286Z,3.17
2018-05-21T05:53:47.007Z,3.23
2018-05-21T05:56:15.133Z,3.20
2018-05-21T05:58:43.307Z,3.30
2018-05-21T06:01:11.389Z,3.30
2018-05-21T06:03:39.646Z,3.00
2018-05-21T06:06:07.643Z,3.40
2018-05-21T06:08:35.772Z,3.53
2018-05-21T06:11:03.913Z,3.30
2018-05-21T06:13:32.035Z,3.50
2018-05-21T06:16:00.165Z,3.40
2018-05-21T06:18:28.284Z,3.60
2018-05-21T06:20:56.405Z,3.80
2018-05-21T06:23:24.541Z,3.43
2018-05-21T06:25:52.720Z,3.30
2018-05-21T06:28:20.774Z,3.00
2018-05-21T06:30:48.892Z,3.43
2018-05-21T06:33:16.994Z,3.37
2018-05-21T06:35:45.113Z,3.37
2018-05-21T06:38:13.425Z,3.63
2018-05-21T06:40:41.566Z,3.57
2018-05-21T06:43:09.696Z,3.40
2018-05-21T06:45:37.840Z,2.80
2018-05-21T06:48:05.938Z,3.43
2018-05-21T06:50:34.056Z,3.13
2018-05-21T06:53:02.167Z,3.03
2018-05-21T06:55:30.285Z,3.40
2018-05-21T06:57:58.387Z,3.67
2018-05-21T07:00:26.535Z,3.30
2018-05-21T07:02:54.653Z,3.77
2018-05-21T07:05:22.750Z,3.37
2018-05-21T07:07:50.918Z,3.47
2018-05-21T07:10:19.002Z,3.40
2018-05-21T07:12:47.125Z,3.53
2018-05-21T07:15:15.256Z,3.67
2018-05-21T07:17:43.366Z,3.23
2018-05-21T07:20:11.478Z,3.77
2018-05-21T07:22:39.609Z,3.47
2018-05-21T07:25:07.734Z,3.83
2018-05-21T07:27:35.873Z,3.97
2018-05-21T07:30:04.041Z,3.53
2018-05-21T07:32:32.187Z,3.80
2018-05-21T07:35:00.306Z,3.77
2018-05-21T07:37:28.400Z,3.23
2018-05-21T07:39:56.518Z,3.20
2018-05-21T07:42:24.641Z,3.80
2018-05-21T07:44:52.818Z,3.60
2018-05-21T07:47:20.883Z,4.00
2018-05-21T07:49:49.009Z,3.77
2018-05-21T07:52:17.141Z,4.17
2018-05-21T07:54:45.265Z,4.10
2018-05-21T07:57:13.385Z,3.90
2018-05-21T07:59:41.538Z,3.43
2018-05-21T08:02:09.648Z,3.80
2018-05-21T08:04:37.768Z,3.77
2018-05-21T08:07:05.927Z,3.93
2018-05-21T08:09:34.040Z,4.00
2018-05-21T08:12:02.459Z,4.00
2018-05-21T08:14:30.680Z,3.50
2018-05-21T08:16:58.742Z,3.90
2018-05-21T08:19:26.853Z,3.80
2018-05-21T08:21:54.993Z,4.30
2018-05-21T08:24:23.379Z,3.93
2018-05-21T08:26:51.241Z,3.80
2018-05-21T08:29:19.537Z,4.27
2018-05-21T08:31:47.652Z,3.97
2018-05-21T08:34:15.807Z,4.10
2018-05-21T08:36:43.923Z,4.20
2018-05-21T08:39:12.049Z,4.17
2018-05-21T08:41:40.183Z,4.43
2018-05-21T08:44:08.313Z,4.27
2018-05-21T08:46:36.430Z,4.10
2018-05-21T08:49:04.559Z,4.43
2018-05-21T08:51:32.670Z,4.40
2018-05-21T08:54:00.816Z,4.83
2018-05-21T08:56:29.008Z,4.80
2018-05-21T08:58:57.286Z,4.10
2018-05-21T09:01:25.404Z,4.00
2018-05-21T09:03:53.529Z,5.03
2018-05-21T09:06:21.681Z,5.40
2018-05-21T09:08:49.779Z,4.27
2018-05-21T09:11:17.901Z,4.60
2018-05-21T09:13:46.036Z,4.17
2018-05-21T09:16:14.236Z,5.03
2018-05-21T09:18:42.291Z,4.97
2018-05-21T09:21:10.426Z,4.20
2018-05-21T09:23:38.559Z,4.30
2018-05-21T09:26:06.737Z,4.73
2018-05-21T09:28:34.869Z,4.80
2018-05-21T09:31:02.967Z,4.67
2018-05-21T09:33:31.084Z,5.30
2018-05-21T09:35:59.214Z,4.47
2018-05-21T09:38:27.332Z,5.27
2018-05-21T09:40:55.456Z,4.50
2018-05-21T09:43:23.935Z,4.67
2018-05-21T09:45:52.052Z,4.77
2018-05-21T09:48:20.180Z,4.70
2018-05-21T09:50:48.305Z,5.20
2018-05-21T09:53:16.410Z,4.90
2018-05-21T09:55:44.547Z,5.50
2018-05-21T09:58:12.669Z,5.13
2018-05-21T10:00:40.789Z,4.87
2018-05-21T10:03:08.916Z,4.70
2018-05-21T10:05:37.062Z,4.77
2018-05-21T10:08:05.195Z,5.03
2018-05-21T10:10:33.282Z,5.27
2018-05-21T10:13:01.433Z,4.80
2018-05-21T10:15:30.002Z,4.83
2018-05-21T10:17:58.136Z,5.07
2018-05-21T10:20:26.273Z,4.97
2018-05-21T10:22:54.366Z,5.03
2018-05-21T10:25:22.638Z,4.93
2018-05-21T10:27:50.805Z,5.43
2018-05-21T10:30:18.933Z,5.43
2018-05-21T10:32:47.040Z,4.70
2018-05-21T10:35:15.178Z,4.73
2018-05-21T10:37:43.306Z,5.10
2018-05-21T10:40:11.483Z,5.03
2018-05-21T10:42:39.612Z,4.57
2018-05-21T10:45:07.725Z,4.80
2018-05-21T10:47:35.840Z,5.33
2018-05-21T10:50:03.982Z,4.60
2018-05-21T10:52:32.094Z,5.13
2018-05-21T10:55:00.236Z,5.57
2018-05-21T10:57:28.381Z,5.53
2018-05-21T10:59:56.471Z,4.77
2018-05-21T11:02:24.633Z,4.80
2018-05-21T11:04:52.953Z,4.97
2018-05-21T11:07:21.081Z,4.80
2018-05-21T11:09:49.184Z,4.83
2018-05-21T11:12:17.418Z,6.67
2018-05-21T11:14:45.438Z,5.10
2018-05-21T11:17:13.554Z,4.67
2018-05-21T11:19:41.703Z,5.00
2018-05-21T11:22:09.814Z,4.83
2018-05-21T11:24:37.966Z,4.70
2018-05-21T11:27:06.076Z,5.27
2018-05-21T11:29:34.216Z,5.20
2018-05-21T11:32:02.488Z,4.53
2018-05-21T11:34:30.525Z,5.10
2018-05-21T11:36:58.640Z,4.60
2018-05-21T11:39:26.762Z,4.97
2018-05-21T11:41:55.090Z,4.70
2018-05-21T11:44:23.220Z,4.87
2018-05-21T11:46:51.329Z,4.73
2018-05-21T11:49:19.471Z,5.00
2018-05-21T11:51:47.593Z,4.37
2018-05-21T11:54:15.733Z,4.30
2018-05-21T11:56:43.871Z,4.80
2018-05-21T11:59:11.967Z,4.30
2018-05-21T12:01:40.092Z,4.90
2018-05-21T12:04:08.221Z,5.30
2018-05-21T12:06:36.342Z,4.40
2018-05-21T12:09:04.455Z,4.27
2018-05-21T12:11:32.567Z,4.33
2018-05-21T12:14:00.712Z,4.73
2018-05-21T12:16:28.826Z,4.20
2018-05-21T12:18:56.953Z,3.97
2018-05-21T12:21:25.091Z,4.47
2018-05-21T12:23:53.224Z,3.60
2018-05-21T12:26:21.557Z,3.80
2018-05-21T12:28:49.685Z,3.80
2018-05-21T12:31:17.779Z,3.40
2018-05-21T12:33:45.902Z,3.60
2018-05-21T12:36:14.025Z,3.87
2018-05-21T12:38:42.139Z,3.80
2018-05-21T12:41:10.259Z,4.17
2018-05-21T12:43:38.451Z,3.57
2018-05-21T12:46:06.529Z,4.10
2018-05-21T12:48:34.657Z,3.93
2018-05-21T12:51:02.773Z,3.83
2018-05-21T12:53:30.878Z,3.90
2018-05-21T12:55:59.012Z,4.10
2018-05-21T12:58:27.161Z,3.73
2018-05-21T13:00:56.105Z,3.47
2018-05-21T13:03:24.241Z,4.00
2018-05-21T13:05:52.348Z,4.23
2018-05-21T13:08:20.473Z,4.00
2018-05-21T13:10:48.583Z,3.80
2018-05-21T13:13:16.709Z,4.20
2018-05-21T13:15:44.839Z,4.57
2018-05-21T13:18:12.974Z,3.73
2018-05-21T13:20:41.071Z,4.03
2018-05-21T13:23:09.197Z,4.00
2018-05-21T13:25:37.317Z,4.13
2018-05-21T13:28:05.455Z,3.63
2018-05-21T13:30:33.587Z,4.17
2018-05-21T13:33:05.155Z,3.80
2018-05-21T13:35:33.277Z,3.77
2018-05-21T13:38:01.382Z,3.90
2018-05-21T13:40:29.552Z,3.93
2018-05-21T13:42:57.751Z,3.70
2018-05-21T13:45:25.854Z,4.03
2018-05-21T13:47:53.966Z,3.50
2018-05-21T13:50:22.093Z,3.73
2018-05-21T13:52:50.235Z,3.63
2018-05-21T13:55:18.376Z,4.07
2018-05-21T13:57:46.489Z,3.87
2018-05-21T14:00:14.612Z,3.70
2018-05-21T14:02:42.754Z,3.50
2018-05-21T14:05:10.882Z,3.63
2018-05-21T14:07:38.966Z,3.43
2018-05-21T14:10:10.585Z,3.70
2018-05-21T14:12:38.736Z,3.60
2018-05-21T14:15:06.790Z,3.40
2018-05-21T14:17:34.919Z,3.63
2018-05-21T14:20:03.102Z,3.87
2018-05-21T14:22:31.204Z,3.57
2018-05-21T14:24:59.341Z,3.87
2018-05-21T14:27:31.646Z,4.00
2018-05-21T14:29:59.795Z,3.70
2018-05-21T14:32:27.931Z,3.80
2018-05-21T14:34:56.054Z,3.97
2018-05-21T14:37:24.184Z,3.73
2018-05-21T14:39:52.302Z,3.67
2018-05-21T14:42:20.414Z,4.03
2018-05-21T14:44:48.546Z,4.13
2018-05-21T14:47:16.736Z,4.90
2018-05-21T14:49:45.327Z,4.53
2018-05-21T14:52:13.463Z,14.47
2018-05-21T14:54:41.741Z,21.63
2018-05-21T14:57:09.889Z,8.33
2018-05-21T14:59:38.947Z,4.07
2018-05-21T15:02:07.111Z,3.50
2018-05-21T15:04:35.824Z,3.90
2018-05-21T15:07:03.931Z,3.90
2018-05-21T15:09:32.121Z,3.60
2018-05-21T15:12:00.221Z,3.90
2018-05-21T15:14:28.411Z,4.00
2018-05-21T15:16:56.549Z,3.40
2018-05-21T15:19:24.732Z,3.87
2018-05-21T15:21:52.845Z,3.50
2018-05-21T15:24:21.000Z,3.50
2018-05-21T15:26:49.117Z,3.90
2018-05-21T15:29:17.320Z,4.10
2018-05-21T15:31:45.589Z,4.53
2018-05-21T15:34:17.165Z,3.73
2018-05-21T15:36:45.285Z,3.87
2018-05-21T15:39:13.399Z,3.63
2018-05-21T15:41:41.522Z,3.30
2018-05-21T15:44:09.655Z,3.80
2018-05-21T15:46:37.811Z,3.90
2018-05-21T15:49:05.930Z,3.60
2018-05-21T15:51:34.078Z,4.07
2018-05-21T15:54:02.182Z,3.67
2018-05-21T15:56:30.305Z,3.73
2018-05-21T15:58:58.452Z,4.00
2018-05-21T16:01:26.600Z,3.67
2018-05-21T16:03:54.711Z,3.53
2018-05-21T16:06:22.852Z,3.60
2018-05-21T16:08:50.981Z,3.50
2018-05-21T16:11:19.099Z,3.53
2018-05-21T16:13:47.320Z,3.90
2018-05-21T16:16:15.452Z,3.67
2018-05-21T16:18:43.583Z,3.63
2018-05-21T16:21:11.793Z,3.57
2018-05-21T16:23:39.911Z,3.83
2018-05-21T16:26:08.012Z,3.17
2018-05-21T16:28:37.019Z,3.77
2018-05-21T16:31:05.175Z,3.63
2018-05-21T16:33:33.439Z,3.50
2018-05-21T16:36:01.584Z,3.73
2018-05-21T16:38:29.709Z,3.60
2018-05-21T16:40:57.825Z,3.37
2018-05-21T16:43:29.799Z,3.30
2018-05-21T16:45:57.932Z,3.07
2018-05-21T16:48:26.038Z,3.30
2018-05-21T16:50:54.138Z,3.73
2018-05-21T16:53:22.297Z,4.03
2018-05-21T16:55:50.416Z,3.30
2018-05-21T16:58:18.515Z,3.63
2018-05-21T17:00:46.669Z,3.40
2018-05-21T17:03:14.778Z,3.60
2018-05-21T17:05:42.886Z,3.57
2018-05-21T17:08:11.022Z,3.50
2018-05-21T17:10:39.115Z,3.20
2018-05-21T17:13:07.245Z,3.40
2018-05-21T17:15:35.350Z,3.67
2018-05-21T17:18:03.455Z,3.70
2018-05-21T17:20:31.590Z,3.50
2018-05-21T17:22:59.738Z,3.10
2018-05-21T17:25:27.866Z,3.40
2018-05-21T17:27:55.985Z,3.47
2018-05-21T17:30:24.116Z,3.37
2018-05-21T17:32:52.286Z,3.30
2018-05-21T17:35:20.445Z,3.30
2018-05-21T17:37:48.576Z,3.30
2018-05-21T17:40:16.696Z,3.47
2018-05-21T17:42:44.832Z,3.60
2018-05-21T17:45:12.973Z,3.20
2018-05-21T17:47:41.093Z,3.57
2018-05-21T17:50:09.210Z,3.50
2018-05-21T17:52:37.355Z,3.53
2018-05-21T17:55:05.506Z,3.80
2018-05-21T17:57:33.618Z,2.90
2018-05-21T18:00:01.815Z,3.10
2018-05-21T18:02:29.915Z,3.87
2018-05-21T18:04:58.137Z,3.50
2018-05-21T18:07:26.285Z,4.00
2018-05-21T18:09:54.427Z,3.40
2018-05-21T18:12:22.608Z,3.53
2018-05-21T18:14:50.728Z,3.33
2018-05-21T18:17:18.846Z,3.67
2018-05-21T18:19:46.962Z,3.50
2018-05-21T18:22:18.125Z,3.20
2018-05-21T18:24:46.237Z,3.37
2018-05-21T18:27:14.361Z,3.30
2018-05-21T18:29:42.498Z,3.13
2018-05-21T18:32:10.668Z,3.23
2018-05-21T18:34:38.755Z,3.17
2018-05-21T18:37:06.912Z,3.33
2018-05-21T18:39:35.022Z,3.47
2018-05-21T18:42:03.207Z,3.30
2018-05-21T18:44:31.269Z,3.30
2018-05-21T18:46:59.404Z,3.37
2018-05-21T18:49:27.514Z,3.17
2018-05-21T18:51:55.877Z,3.47
2018-05-21T18:54:23.974Z,3.67
2018-05-21T18:56:52.095Z,2.97
2018-05-21T18:59:20.357Z,3.07
2018-05-21T19:01:48.525Z,3.50
2018-05-21T19:04:16.712Z,3.23
2018-05-21T19:06:45.013Z,3.33
2018-05-21T19:09:13.159Z,4.50
2018-05-21T19:11:41.287Z,3.40
2018-05-21T19:14:09.423Z,3.60
2018-05-21T19:16:37.542Z,3.27
2018-05-21T19:19:05.664Z,3.20
2018-05-21T19:21:33.827Z,3.10
2018-05-21T19:24:01.983Z,3.27
2018-05-21T19:26:30.094Z,3.47
2018-05-21T19:28:58.225Z,3.30
2018-05-21T19:31:26.331Z,3.80
2018-05-21T19:33:55.364Z,3.83
2018-05-21T19:36:24.369Z,3.07
2018-05-21T19:38:52.486Z,3.30
2018-05-21T19:41:20.608Z,3.37
2018-05-21T19:43:48.754Z,3.00
2018-05-21T19:46:16.858Z,3.10
2018-05-21T19:48:44.998Z,3.00
2018-05-21T19:51:13.141Z,3.17
2018-05-21T19:53:41.307Z,3.27
2018-05-21T19:56:09.402Z,3.20
2018-05-21T19:58:37.552Z,3.33
2018-05-21T20:01:05.688Z,3.53
2018-05-21T20:03:33.810Z,2.93
2018-05-21T20:06:02.040Z,3.10
2018-05-21T20:08:30.160Z,3.47
2018-05-21T20:10:58.325Z,3.40
2018-05-21T20:13:26.593Z,3.30
2018-05-21T20:15:54.690Z,3.60
2018-05-21T20:18:33.889Z,3.30
2018-05-21T20:21:02.026Z,3.90
2018-05-21T20:23:30.194Z,3.20
2018-05-21T20:25:58.451Z,3.60
2018-05-21T20:28:29.965Z,3.33
2018-05-21T20:30:58.124Z,3.63
2018-05-21T20:33:26.641Z,3.17
2018-05-21T20:35:54.779Z,3.40
2018-05-21T20:38:22.892Z,3.73
2018-05-21T20:40:51.117Z,3.60
2018-05-21T20:43:19.253Z,3.70
2018-05-21T20:45:47.491Z,3.40
2018-05-21T20:48:15.667Z,3.37
2018-05-21T20:50:43.774Z,3.47
2018-05-21T20:53:11.875Z,3.30
2018-05-21T20:55:40.024Z,3.80
2018-05-21T20:58:08.141Z,3.57
2018-05-21T21:00:36.316Z,4.03
2018-05-21T21:03:04.703Z,3.60
2018-05-21T21:05:32.831Z,3.90
2018-05-21T21:08:00.957Z,3.43
2018-05-21T21:10:29.323Z,3.90
2018-05-21T21:12:57.429Z,3.47
2018-05-21T21:15:25.530Z,3.80
2018-05-21T21:17:53.648Z,3.50
2018-05-21T21:20:21.766Z,3.67
2018-05-21T21:22:50.022Z,3.57
2018-05-21T21:25:18.141Z,3.50
2018-05-21T21:27:49.404Z,3.80
2018-05-21T21:30:17.520Z,4.17
2018-05-21T21:32:45.652Z,4.53
2018-05-21T21:35:13.776Z,4.70
2018-05-21T21:37:41.891Z,4.40
2018-05-21T21:40:10.037Z,4.50
2018-05-21T21:42:38.141Z,4.37
2018-05-21T21:45:06.273Z,5.07
2018-05-21T21:47:34.410Z,4.53
2018-05-21T21:50:02.539Z,5.10
2018-05-21T21:52:30.658Z,5.70
2018-05-21T21:54:58.780Z,6.07
2018-05-21T21:57:26.916Z,5.60
2018-05-21T21:59:55.047Z,5.67
2018-05-21T22:02:23.172Z,5.80
2018-05-21T22:04:51.288Z,6.27
2018-05-21T22:07:19.390Z,6.37
2018-05-21T22:09:47.617Z,6.23
2018-05-21T22:12:15.727Z,6.50
2018-05-21T22:14:43.846Z,6.50
2018-05-21T22:17:11.952Z,6.27
2018-05-21T22:19:40.092Z,6.23
2018-05-21T22:22:08.213Z,6.33
2018-05-21T22:24:36.356Z,6.70
2018-05-21T22:27:04.479Z,6.40
2018-05-21T22:29:32.612Z,5.73
2018-05-21T22:32:01.003Z,6.33
2018-05-21T22:34:29.128Z,6.20
2018-05-21T22:36:57.219Z,6.43
2018-05-21T22:39:25.373Z,6.03
2018-05-21T22:41:53.463Z,6.63
2018-05-21T22:44:21.577Z,5.80
2018-05-21T22:46:49.700Z,6.43
2018-05-21T22:49:17.813Z,6.37
2018-05-21T22:51:46.021Z,6.13
2018-05-21T22:54:19.946Z,6.63
2018-05-21T22:56:48.053Z,5.83
2018-05-21T22:59:16.199Z,6.73
2018-05-21T23:01:44.399Z,6.20
2018-05-21T23:04:12.532Z,6.37
2018-05-21T23:06:40.700Z,6.33
2018-05-21T23:09:08.847Z,6.90
2018-05-21T23:11:36.993Z,7.60
2018-05-21T23:14:05.114Z,7.63
2018-05-21T23:16:33.413Z,7.00
2018-05-21T23:19:01.536Z,7.20
2018-05-21T23:21:29.653Z,7.23
2018-05-21T23:23:57.971Z,7.33
2018-05-21T23:26:26.107Z,8.93
2018-05-21T23:28:54.227Z,9.37
2018-05-21T23:31:22.368Z,9.73
2018-05-21T23:33:50.467Z,9.40
2018-05-21T23:36:18.578Z,8.73
2018-05-21T23:38:46.707Z,8.90
2018-05-21T23:41:14.830Z,8.13
2018-05-21T23:43:42.947Z,8.20
2018-05-21T23:46:11.100Z,7.67
2018-05-21T23:48:39.202Z,8.00
2018-05-21T23:51:07.402Z,7.93
2018-05-21T23:53:35.468Z,8.10
2018-05-21T23:56:03.608Z,8.70
2018-05-21T23:58:31.736Z,8.93
